sensor_id;sensor_type;location;lat;lon;timestamp;temperature;humidity
29551;DHT22;16488;52.396;10.696;2022-09-09T00:04:33;14.20;99.90
29551;DHT22;16488;52.396;10.696;2022-09-09T00:07:28;14.20;99.90
29551;DHT22;16488;52.396;10.696;2022-09-09T00:10:29;14.20;99.90
29551;DHT22;16488;52.396;10.696;2022-09-09T00:15:57;14.20;99.90
29551;DHT22;16488;52.396;10.696;2022-09-09T00:21:16;14.10;99.90
29551;DHT22;16488;52.396;10.696;2022-09-09T00:23:53;14.10;99.90
29551;DHT22;16488;52.396;10.696;2022-09-09T00:28:55;14.10;99.90
29551;DHT22;16488;52.396;10.696;2022-09-09T00:31:26;14.20;99.90
29551;DHT22;16488;52.396;10.696;2022-09-09T00:33:53;14.10;99.90
29551;DHT22;16488;52.396;10.696;2022-09-09T00:36:22;14.10;99.90
29551;DHT22;16488;52.396;10.696;2022-09-09T00:38:58;14.10;99.90
29551;DHT22;16488;52.396;10.696;2022-09-09T00:44:30;14.20;99.90
29551;DHT22;16488;52.396;10.696;2022-09-09T00:47:04;14.10;99.90
29551;DHT22;16488;52.396;10.696;2022-09-09T00:55:45;14.00;99.90
29551;DHT22;16488;52.396;10.696;2022-09-09T00:58:13;14.00;99.90
29551;DHT22;16488;52.396;10.696;2022-09-09T01:00:47;14.00;99.90
29551;DHT22;16488;52.396;10.696;2022-09-09T01:03:51;14.00;99.90
29551;DHT22;16488;52.396;10.696;2022-09-09T01:06:33;14.00;99.90
29551;DHT22;16488;52.396;10.696;2022-09-09T01:12:03;14.00;99.90
29551;DHT22;16488;52.396;10.696;2022-09-09T01:17:26;14.00;99.90
29551;DHT22;16488;52.396;10.696;2022-09-09T01:23:38;13.90;99.90
29551;DHT22;16488;52.396;10.696;2022-09-09T01:26:39;13.90;99.90
29551;DHT22;16488;52.396;10.696;2022-09-09T01:29:12;13.90;99.90
29551;DHT22;16488;52.396;10.696;2022-09-09T01:31:56;14.00;99.90
29551;DHT22;16488;52.396;10.696;2022-09-09T01:34:25;14.00;99.90
29551;DHT22;16488;52.396;10.696;2022-09-09T01:37:05;13.90;99.90
29551;DHT22;16488;52.396;10.696;2022-09-09T01:39:34;14.00;99.90
29551;DHT22;16488;52.396;10.696;2022-09-09T01:42:01;13.90;99.90
29551;DHT22;16488;52.396;10.696;2022-09-09T01:44:27;14.00;99.90
29551;DHT22;16488;52.396;10.696;2022-09-09T01:46:54;14.00;99.90
29551;DHT22;16488;52.396;10.696;2022-09-09T01:49:20;14.00;99.90
29551;DHT22;16488;52.396;10.696;2022-09-09T01:51:50;13.90;99.90
29551;DHT22;16488;52.396;10.696;2022-09-09T01:54:17;13.90;99.90
29551;DHT22;16488;52.396;10.696;2022-09-09T01:59:53;13.90;99.90
29551;DHT22;16488;52.396;10.696;2022-09-09T02:02:36;13.90;99.90
29551;DHT22;16488;52.396;10.696;2022-09-09T02:10:16;13.90;99.90
29551;DHT22;16488;52.396;10.696;2022-09-09T02:12:45;14.00;99.90
29551;DHT22;16488;52.396;10.696;2022-09-09T02:18:25;14.00;99.90
29551;DHT22;16488;52.396;10.696;2022-09-09T02:20:53;13.90;99.90
29551;DHT22;16488;52.396;10.696;2022-09-09T02:23:19;14.00;99.90
29551;DHT22;16488;52.396;10.696;2022-09-09T02:25:46;14.00;99.90
29551;DHT22;16488;52.396;10.696;2022-09-09T02:28:14;14.00;99.90
29551;DHT22;16488;52.396;10.696;2022-09-09T02:30:42;13.90;99.90
29551;DHT22;16488;52.396;10.696;2022-09-09T02:33:11;13.90;99.90
29551;DHT22;16488;52.396;10.696;2022-09-09T02:35:39;13.80;99.90
29551;DHT22;16488;52.396;10.696;2022-09-09T02:38:09;13.80;99.90
29551;DHT22;16488;52.396;10.696;2022-09-09T02:40:36;13.80;99.90
29551;DHT22;16488;52.396;10.696;2022-09-09T02:43:01;13.70;99.90
29551;DHT22;16488;52.396;10.696;2022-09-09T02:45:36;13.70;99.90
29551;DHT22;16488;52.396;10.696;2022-09-09T02:48:18;13.70;99.90
29551;DHT22;16488;52.396;10.696;2022-09-09T02:51:05;13.70;99.90
29551;DHT22;16488;52.396;10.696;2022-09-09T02:56:15;13.70;99.90
29551;DHT22;16488;52.396;10.696;2022-09-09T02:58:42;13.70;99.90
29551;DHT22;16488;52.396;10.696;2022-09-09T03:01:07;13.70;99.90
29551;DHT22;16488;52.396;10.696;2022-09-09T03:03:34;13.70;99.90
29551;DHT22;16488;52.396;10.696;2022-09-09T03:06:00;13.70;99.90
29551;DHT22;16488;52.396;10.696;2022-09-09T03:08:25;13.60;99.90
29551;DHT22;16488;52.396;10.696;2022-09-09T03:10:54;13.60;99.90
29551;DHT22;16488;52.396;10.696;2022-09-09T03:13:20;13.70;99.90
29551;DHT22;16488;52.396;10.696;2022-09-09T03:15:45;13.60;99.90
29551;DHT22;16488;52.396;10.696;2022-09-09T03:18:11;13.60;99.90
29551;DHT22;16488;52.396;10.696;2022-09-09T03:20:36;13.60;99.90
29551;DHT22;16488;52.396;10.696;2022-09-09T03:23:02;13.60;99.90
29551;DHT22;16488;52.396;10.696;2022-09-09T03:25:27;13.60;99.90
29551;DHT22;16488;52.396;10.696;2022-09-09T03:27:54;13.60;99.90
29551;DHT22;16488;52.396;10.696;2022-09-09T03:30:22;13.60;99.90
29551;DHT22;16488;52.396;10.696;2022-09-09T03:32:47;13.70;99.90
29551;DHT22;16488;52.396;10.696;2022-09-09T03:35:13;13.70;99.90
29551;DHT22;16488;52.396;10.696;2022-09-09T03:37:39;13.70;99.90
29551;DHT22;16488;52.396;10.696;2022-09-09T03:40:05;13.70;99.90
29551;DHT22;16488;52.396;10.696;2022-09-09T03:42:31;13.70;99.90
29551;DHT22;16488;52.396;10.696;2022-09-09T03:44:57;13.70;99.90
29551;DHT22;16488;52.396;10.696;2022-09-09T03:47:23;13.70;99.90
29551;DHT22;16488;52.396;10.696;2022-09-09T03:49:49;13.80;99.90
29551;DHT22;16488;52.396;10.696;2022-09-09T03:52:15;13.80;99.90
29551;DHT22;16488;52.396;10.696;2022-09-09T03:54:41;13.80;99.90
29551;DHT22;16488;52.396;10.696;2022-09-09T03:57:08;13.80;99.90
29551;DHT22;16488;52.396;10.696;2022-09-09T03:59:34;13.80;99.90
29551;DHT22;16488;52.396;10.696;2022-09-09T04:02:00;13.80;99.90
29551;DHT22;16488;52.396;10.696;2022-09-09T04:04:26;13.90;99.90
29551;DHT22;16488;52.396;10.696;2022-09-09T04:06:52;13.90;99.90
29551;DHT22;16488;52.396;10.696;2022-09-09T04:09:18;13.90;99.90
29551;DHT22;16488;52.396;10.696;2022-09-09T04:11:44;13.90;99.90
29551;DHT22;16488;52.396;10.696;2022-09-09T04:14:10;13.90;99.90
29551;DHT22;16488;52.396;10.696;2022-09-09T04:16:35;13.90;99.90
29551;DHT22;16488;52.396;10.696;2022-09-09T04:19:05;13.90;99.90
29551;DHT22;16488;52.396;10.696;2022-09-09T04:21:32;13.90;99.90
29551;DHT22;16488;52.396;10.696;2022-09-09T04:23:57;13.90;99.90
29551;DHT22;16488;52.396;10.696;2022-09-09T04:26:23;13.90;99.90
29551;DHT22;16488;52.396;10.696;2022-09-09T04:28:48;13.90;99.90
29551;DHT22;16488;52.396;10.696;2022-09-09T04:31:20;13.90;99.90
29551;DHT22;16488;52.396;10.696;2022-09-09T04:33:48;13.90;99.90
29551;DHT22;16488;52.396;10.696;2022-09-09T04:36:13;13.90;99.90
29551;DHT22;16488;52.396;10.696;2022-09-09T04:38:39;13.90;99.90
29551;DHT22;16488;52.396;10.696;2022-09-09T04:41:05;13.90;99.90
29551;DHT22;16488;52.396;10.696;2022-09-09T04:43:31;13.90;99.90
29551;DHT22;16488;52.396;10.696;2022-09-09T04:45:57;13.90;99.90
29551;DHT22;16488;52.396;10.696;2022-09-09T04:48:23;13.90;99.90
29551;DHT22;16488;52.396;10.696;2022-09-09T04:50:54;13.90;99.90
29551;DHT22;16488;52.396;10.696;2022-09-09T04:53:20;13.90;99.90
29551;DHT22;16488;52.396;10.696;2022-09-09T04:55:47;13.80;99.90
29551;DHT22;16488;52.396;10.696;2022-09-09T04:58:14;13.90;99.90
29551;DHT22;16488;52.396;10.696;2022-09-09T05:00:39;13.90;99.90
29551;DHT22;16488;52.396;10.696;2022-09-09T05:03:05;13.90;99.90
29551;DHT22;16488;52.396;10.696;2022-09-09T05:05:32;13.90;99.90
29551;DHT22;16488;52.396;10.696;2022-09-09T05:08:06;13.90;99.90
29551;DHT22;16488;52.396;10.696;2022-09-09T05:10:33;13.80;99.90
29551;DHT22;16488;52.396;10.696;2022-09-09T05:12:59;13.80;99.90
29551;DHT22;16488;52.396;10.696;2022-09-09T05:15:25;13.70;99.90
29551;DHT22;16488;52.396;10.696;2022-09-09T05:17:50;13.60;99.90
29551;DHT22;16488;52.396;10.696;2022-09-09T05:20:18;13.70;99.90
29551;DHT22;16488;52.396;10.696;2022-09-09T05:22:44;13.70;99.90
29551;DHT22;16488;52.396;10.696;2022-09-09T05:25:09;13.80;99.90
29551;DHT22;16488;52.396;10.696;2022-09-09T05:27:35;13.80;99.90
29551;DHT22;16488;52.396;10.696;2022-09-09T05:30:00;13.90;99.90
29551;DHT22;16488;52.396;10.696;2022-09-09T05:32:26;14.00;99.90
29551;DHT22;16488;52.396;10.696;2022-09-09T05:34:51;14.00;99.90
29551;DHT22;16488;52.396;10.696;2022-09-09T05:37:18;14.10;99.90
29551;DHT22;16488;52.396;10.696;2022-09-09T05:39:43;14.20;99.90
29551;DHT22;16488;52.396;10.696;2022-09-09T05:42:09;14.20;99.90
29551;DHT22;16488;52.396;10.696;2022-09-09T05:44:35;14.40;99.90
29551;DHT22;16488;52.396;10.696;2022-09-09T05:47:00;14.40;99.90
29551;DHT22;16488;52.396;10.696;2022-09-09T05:49:26;14.50;99.90
29551;DHT22;16488;52.396;10.696;2022-09-09T05:51:52;14.60;99.90
29551;DHT22;16488;52.396;10.696;2022-09-09T05:54:18;14.60;99.90
29551;DHT22;16488;52.396;10.696;2022-09-09T05:56:44;14.70;99.90
29551;DHT22;16488;52.396;10.696;2022-09-09T05:59:09;14.70;99.90
29551;DHT22;16488;52.396;10.696;2022-09-09T06:01:37;14.80;99.90
29551;DHT22;16488;52.396;10.696;2022-09-09T06:04:06;14.80;99.90
29551;DHT22;16488;52.396;10.696;2022-09-09T06:06:34;14.90;99.90
29551;DHT22;16488;52.396;10.696;2022-09-09T06:09:03;14.90;99.90
29551;DHT22;16488;52.396;10.696;2022-09-09T06:11:32;14.90;99.90
29551;DHT22;16488;52.396;10.696;2022-09-09T06:13:59;15.00;99.90
29551;DHT22;16488;52.396;10.696;2022-09-09T06:16:26;15.10;99.90
29551;DHT22;16488;52.396;10.696;2022-09-09T06:18:54;15.10;99.90
29551;DHT22;16488;52.396;10.696;2022-09-09T06:21:27;15.20;99.90
29551;DHT22;16488;52.396;10.696;2022-09-09T06:23:53;15.20;99.90
29551;DHT22;16488;52.396;10.696;2022-09-09T06:26:21;15.30;99.90
29551;DHT22;16488;52.396;10.696;2022-09-09T06:28:49;15.40;99.90
29551;DHT22;16488;52.396;10.696;2022-09-09T06:31:19;15.50;99.90
29551;DHT22;16488;52.396;10.696;2022-09-09T06:33:50;15.60;99.90
29551;DHT22;16488;52.396;10.696;2022-09-09T06:36:24;15.60;99.90
29551;DHT22;16488;52.396;10.696;2022-09-09T06:38:50;15.70;99.90
29551;DHT22;16488;52.396;10.696;2022-09-09T06:41:18;15.70;99.90
29551;DHT22;16488;52.396;10.696;2022-09-09T06:43:44;15.70;99.90
29551;DHT22;16488;52.396;10.696;2022-09-09T06:46:11;15.80;99.90
29551;DHT22;16488;52.396;10.696;2022-09-09T06:48:38;15.80;99.90
29551;DHT22;16488;52.396;10.696;2022-09-09T06:51:13;15.80;99.90
29551;DHT22;16488;52.396;10.696;2022-09-09T06:53:40;15.80;99.90
29551;DHT22;16488;52.396;10.696;2022-09-09T06:56:21;15.80;99.90
29551;DHT22;16488;52.396;10.696;2022-09-09T06:58:49;15.90;99.90
29551;DHT22;16488;52.396;10.696;2022-09-09T07:01:27;15.90;99.90
29551;DHT22;16488;52.396;10.696;2022-09-09T07:03:55;16.00;99.90
29551;DHT22;16488;52.396;10.696;2022-09-09T07:06:23;16.10;99.90
29551;DHT22;16488;52.396;10.696;2022-09-09T07:08:51;16.30;99.90
29551;DHT22;16488;52.396;10.696;2022-09-09T07:11:17;16.40;99.90
29551;DHT22;16488;52.396;10.696;2022-09-09T07:13:43;16.50;99.90
29551;DHT22;16488;52.396;10.696;2022-09-09T07:16:11;16.60;99.90
29551;DHT22;16488;52.396;10.696;2022-09-09T07:18:38;16.60;99.90
29551;DHT22;16488;52.396;10.696;2022-09-09T07:21:04;16.70;99.90
29551;DHT22;16488;52.396;10.696;2022-09-09T07:23:32;16.80;99.90
29551;DHT22;16488;52.396;10.696;2022-09-09T07:25:58;16.90;99.90
29551;DHT22;16488;52.396;10.696;2022-09-09T07:28:25;17.00;99.90
29551;DHT22;16488;52.396;10.696;2022-09-09T07:30:57;17.00;99.90
29551;DHT22;16488;52.396;10.696;2022-09-09T07:33:24;17.10;99.90
29551;DHT22;16488;52.396;10.696;2022-09-09T07:35:51;17.20;99.90
29551;DHT22;16488;52.396;10.696;2022-09-09T07:38:17;17.30;99.90
29551;DHT22;16488;52.396;10.696;2022-09-09T07:40:43;17.30;99.90
29551;DHT22;16488;52.396;10.696;2022-09-09T07:43:09;17.30;99.90
29551;DHT22;16488;52.396;10.696;2022-09-09T07:45:35;17.40;99.90
29551;DHT22;16488;52.396;10.696;2022-09-09T07:48:01;17.40;99.90
29551;DHT22;16488;52.396;10.696;2022-09-09T07:50:27;17.50;99.90
29551;DHT22;16488;52.396;10.696;2022-09-09T07:52:52;17.50;99.90
29551;DHT22;16488;52.396;10.696;2022-09-09T07:55:22;17.60;99.90
29551;DHT22;16488;52.396;10.696;2022-09-09T07:57:53;17.70;99.90
29551;DHT22;16488;52.396;10.696;2022-09-09T08:00:18;17.80;99.90
29551;DHT22;16488;52.396;10.696;2022-09-09T08:02:45;17.90;99.90
29551;DHT22;16488;52.396;10.696;2022-09-09T08:05:11;17.90;99.90
29551;DHT22;16488;52.396;10.696;2022-09-09T08:07:38;17.90;99.90
29551;DHT22;16488;52.396;10.696;2022-09-09T08:10:04;17.90;99.90
29551;DHT22;16488;52.396;10.696;2022-09-09T08:12:31;17.90;99.90
29551;DHT22;16488;52.396;10.696;2022-09-09T08:14:57;17.90;99.90
29551;DHT22;16488;52.396;10.696;2022-09-09T08:17:23;17.80;99.90
29551;DHT22;16488;52.396;10.696;2022-09-09T08:19:48;17.80;99.90
29551;DHT22;16488;52.396;10.696;2022-09-09T08:22:14;17.80;99.90
29551;DHT22;16488;52.396;10.696;2022-09-09T08:24:39;17.80;99.90
29551;DHT22;16488;52.396;10.696;2022-09-09T08:27:06;17.90;99.90
29551;DHT22;16488;52.396;10.696;2022-09-09T08:29:32;17.90;99.90
29551;DHT22;16488;52.396;10.696;2022-09-09T08:31:58;18.10;99.90
29551;DHT22;16488;52.396;10.696;2022-09-09T08:34:24;18.20;99.90
29551;DHT22;16488;52.396;10.696;2022-09-09T08:36:52;18.30;99.90
29551;DHT22;16488;52.396;10.696;2022-09-09T08:39:19;18.40;99.90
29551;DHT22;16488;52.396;10.696;2022-09-09T08:50:28;18.70;99.90
29551;DHT22;16488;52.396;10.696;2022-09-09T08:55:56;19.00;99.90
29551;DHT22;16488;52.396;10.696;2022-09-09T08:58:35;19.10;99.90
29551;DHT22;16488;52.396;10.696;2022-09-09T09:01:29;19.10;99.90
29551;DHT22;16488;52.396;10.696;2022-09-09T09:09:18;19.00;99.90
29551;DHT22;16488;52.396;10.696;2022-09-09T09:11:51;18.90;99.90
29551;DHT22;16488;52.396;10.696;2022-09-09T09:14:21;18.80;99.90
29551;DHT22;16488;52.396;10.696;2022-09-09T09:17:12;18.90;99.90
29551;DHT22;16488;52.396;10.696;2022-09-09T09:19:40;19.00;99.90
29551;DHT22;16488;52.396;10.696;2022-09-09T09:22:16;19.10;99.90
29551;DHT22;16488;52.396;10.696;2022-09-09T09:27:43;19.40;99.90
29551;DHT22;16488;52.396;10.696;2022-09-09T09:30:20;19.50;99.90
29551;DHT22;16488;52.396;10.696;2022-09-09T09:35:50;19.80;99.90
29551;DHT22;16488;52.396;10.696;2022-09-09T09:38:21;19.90;99.90
29551;DHT22;16488;52.396;10.696;2022-09-09T09:40:54;19.90;99.90
29551;DHT22;16488;52.396;10.696;2022-09-09T09:43:31;19.90;99.90
29551;DHT22;16488;52.396;10.696;2022-09-09T09:45:58;20.00;99.90
29551;DHT22;16488;52.396;10.696;2022-09-09T09:48:25;20.10;99.90
29551;DHT22;16488;52.396;10.696;2022-09-09T09:53:37;20.10;99.90
29551;DHT22;16488;52.396;10.696;2022-09-09T09:56:14;20.20;99.90
29551;DHT22;16488;52.396;10.696;2022-09-09T10:01:28;20.00;99.90
29551;DHT22;16488;52.396;10.696;2022-09-09T10:04:02;20.00;99.90
29551;DHT22;16488;52.396;10.696;2022-09-09T10:06:34;20.20;99.90
29551;DHT22;16488;52.396;10.696;2022-09-09T10:09:03;20.40;99.90
29551;DHT22;16488;52.396;10.696;2022-09-09T10:11:44;20.50;99.90
29551;DHT22;16488;52.396;10.696;2022-09-09T10:14:23;20.30;99.90
29551;DHT22;16488;52.396;10.696;2022-09-09T10:17:09;20.10;99.90
29551;DHT22;16488;52.396;10.696;2022-09-09T10:19:37;19.90;99.90
29551;DHT22;16488;52.396;10.696;2022-09-09T10:24:48;19.70;99.90
29551;DHT22;16488;52.396;10.696;2022-09-09T10:30:18;19.50;99.90
29551;DHT22;16488;52.396;10.696;2022-09-09T10:33:10;19.50;99.90
29551;DHT22;16488;52.396;10.696;2022-09-09T10:35:52;19.50;99.90
29551;DHT22;16488;52.396;10.696;2022-09-09T10:38:42;19.90;99.90
29551;DHT22;16488;52.396;10.696;2022-09-09T10:41:25;20.10;99.90
29551;DHT22;16488;52.396;10.696;2022-09-09T10:55:33;20.30;99.90
29551;DHT22;16488;52.396;10.696;2022-09-09T10:58:02;20.10;99.90
29551;DHT22;16488;52.396;10.696;2022-09-09T11:00:37;20.00;99.90
29551;DHT22;16488;52.396;10.696;2022-09-09T11:03:04;19.90;99.90
29551;DHT22;16488;52.396;10.696;2022-09-09T11:05:41;19.90;99.90
29551;DHT22;16488;52.396;10.696;2022-09-09T11:08:15;19.90;99.90
29551;DHT22;16488;52.396;10.696;2022-09-09T11:11:03;19.90;99.90
29551;DHT22;16488;52.396;10.696;2022-09-09T11:16:25;20.10;99.90
29551;DHT22;16488;52.396;10.696;2022-09-09T11:19:31;20.30;99.90
29551;DHT22;16488;52.396;10.696;2022-09-09T11:21:49;20.50;99.90
29551;DHT22;16488;52.396;10.696;2022-09-09T11:26:55;20.50;99.90
29551;DHT22;16488;52.396;10.696;2022-09-09T11:38:03;20.20;99.90
29551;DHT22;16488;52.396;10.696;2022-09-09T11:40:31;20.10;99.90
29551;DHT22;16488;52.396;10.696;2022-09-09T11:43:15;20.10;99.90
29551;DHT22;16488;52.396;10.696;2022-09-09T11:45:43;20.10;99.90
29551;DHT22;16488;52.396;10.696;2022-09-09T11:48:33;20.10;99.90
29551;DHT22;16488;52.396;10.696;2022-09-09T11:51:26;20.10;99.90
29551;DHT22;16488;52.396;10.696;2022-09-09T11:53:57;20.00;99.90
29551;DHT22;16488;52.396;10.696;2022-09-09T11:56:47;20.10;99.90
29551;DHT22;16488;52.396;10.696;2022-09-09T11:59:22;20.10;99.90
29551;DHT22;16488;52.396;10.696;2022-09-09T12:02:02;20.10;99.90
29551;DHT22;16488;52.396;10.696;2022-09-09T12:04:32;20.00;99.90
29551;DHT22;16488;52.396;10.696;2022-09-09T12:07:01;20.00;99.90
29551;DHT22;16488;52.396;10.696;2022-09-09T12:17:22;18.60;99.90
29551;DHT22;16488;52.396;10.696;2022-09-09T12:19:59;18.20;99.90
29551;DHT22;16488;52.396;10.696;2022-09-09T12:25:35;17.80;99.90
29551;DHT22;16488;52.396;10.696;2022-09-09T12:28:09;17.60;99.90
29551;DHT22;16488;52.396;10.696;2022-09-09T12:30:58;17.50;99.90
29551;DHT22;16488;52.396;10.696;2022-09-09T12:33:37;17.40;99.90
29551;DHT22;16488;52.396;10.696;2022-09-09T12:36:08;17.50;99.90
29551;DHT22;16488;52.396;10.696;2022-09-09T12:38:40;17.70;99.90
29551;DHT22;16488;52.396;10.696;2022-09-09T12:41:05;17.90;99.90
29551;DHT22;16488;52.396;10.696;2022-09-09T12:43:31;18.10;99.90
29551;DHT22;16488;52.396;10.696;2022-09-09T12:46:02;18.30;99.90
29551;DHT22;16488;52.396;10.696;2022-09-09T12:48:49;18.50;99.90
29551;DHT22;16488;52.396;10.696;2022-09-09T12:51:21;18.70;99.90
29551;DHT22;16488;52.396;10.696;2022-09-09T12:53:51;18.90;99.90
29551;DHT22;16488;52.396;10.696;2022-09-09T12:56:22;19.00;99.90
29551;DHT22;16488;52.396;10.696;2022-09-09T12:58:50;19.10;99.90
29551;DHT22;16488;52.396;10.696;2022-09-09T13:01:24;19.30;99.90
29551;DHT22;16488;52.396;10.696;2022-09-09T13:03:50;19.30;99.90
29551;DHT22;16488;52.396;10.696;2022-09-09T13:06:24;19.30;99.90
29551;DHT22;16488;52.396;10.696;2022-09-09T13:08:51;19.40;99.90
29551;DHT22;16488;52.396;10.696;2022-09-09T13:11:21;19.30;99.90
29551;DHT22;16488;52.396;10.696;2022-09-09T13:13:56;19.30;99.90
29551;DHT22;16488;52.396;10.696;2022-09-09T13:16:33;19.20;99.90
29551;DHT22;16488;52.396;10.696;2022-09-09T13:19:09;19.20;99.90
29551;DHT22;16488;52.396;10.696;2022-09-09T13:21:37;19.10;99.90
29551;DHT22;16488;52.396;10.696;2022-09-09T13:24:33;19.00;99.90
29551;DHT22;16488;52.396;10.696;2022-09-09T13:27:04;19.00;99.90
29551;DHT22;16488;52.396;10.696;2022-09-09T13:29:32;18.90;99.90
29551;DHT22;16488;52.396;10.696;2022-09-09T13:32:26;18.80;99.90
29551;DHT22;16488;52.396;10.696;2022-09-09T13:34:57;18.80;99.90
29551;DHT22;16488;52.396;10.696;2022-09-09T13:37:37;18.70;99.90
29551;DHT22;16488;52.396;10.696;2022-09-09T13:40:04;18.70;99.90
29551;DHT22;16488;52.396;10.696;2022-09-09T13:42:39;18.70;99.90
29551;DHT22;16488;52.396;10.696;2022-09-09T13:45:17;18.80;99.90
29551;DHT22;16488;52.396;10.696;2022-09-09T13:47:45;18.90;99.90
29551;DHT22;16488;52.396;10.696;2022-09-09T13:52:45;19.20;99.90
29551;DHT22;16488;52.396;10.696;2022-09-09T13:55:13;19.30;99.90
29551;DHT22;16488;52.396;10.696;2022-09-09T13:57:59;19.40;99.90
29551;DHT22;16488;52.396;10.696;2022-09-09T14:00:30;19.50;99.90
29551;DHT22;16488;52.396;10.696;2022-09-09T14:02:57;19.60;99.90
29551;DHT22;16488;52.396;10.696;2022-09-09T14:05:22;19.80;99.90
29551;DHT22;16488;52.396;10.696;2022-09-09T14:07:49;19.90;99.90
29551;DHT22;16488;52.396;10.696;2022-09-09T14:10:15;19.80;99.90
29551;DHT22;16488;52.396;10.696;2022-09-09T14:12:41;19.90;99.90
29551;DHT22;16488;52.396;10.696;2022-09-09T14:15:08;19.90;99.90
29551;DHT22;16488;52.396;10.696;2022-09-09T14:17:34;19.90;99.90
29551;DHT22;16488;52.396;10.696;2022-09-09T14:20:03;19.90;99.90
29551;DHT22;16488;52.396;10.696;2022-09-09T14:22:33;19.90;99.90
29551;DHT22;16488;52.396;10.696;2022-09-09T14:24:59;19.90;99.90
29551;DHT22;16488;52.396;10.696;2022-09-09T14:27:24;19.90;99.90
29551;DHT22;16488;52.396;10.696;2022-09-09T14:29:52;19.90;99.90
29551;DHT22;16488;52.396;10.696;2022-09-09T14:32:18;20.20;99.90
29551;DHT22;16488;52.396;10.696;2022-09-09T14:34:43;20.40;99.90
29551;DHT22;16488;52.396;10.696;2022-09-09T14:37:09;20.70;99.90
29551;DHT22;16488;52.396;10.696;2022-09-09T14:39:34;20.80;99.90
29551;DHT22;16488;52.396;10.696;2022-09-09T14:42:00;20.80;99.90
29551;DHT22;16488;52.396;10.696;2022-09-09T14:44:26;20.90;99.90
29551;DHT22;16488;52.396;10.696;2022-09-09T14:46:51;20.90;99.90
29551;DHT22;16488;52.396;10.696;2022-09-09T14:49:17;20.90;99.90
29551;DHT22;16488;52.396;10.696;2022-09-09T14:51:42;20.80;99.90
29551;DHT22;16488;52.396;10.696;2022-09-09T14:54:08;20.90;99.90
29551;DHT22;16488;52.396;10.696;2022-09-09T14:56:34;20.90;99.90
29551;DHT22;16488;52.396;10.696;2022-09-09T14:59:00;20.70;99.90
29551;DHT22;16488;52.396;10.696;2022-09-09T15:01:26;20.70;99.90
29551;DHT22;16488;52.396;10.696;2022-09-09T15:03:57;20.70;99.90
29551;DHT22;16488;52.396;10.696;2022-09-09T15:06:24;20.70;99.90
29551;DHT22;16488;52.396;10.696;2022-09-09T15:08:52;20.70;99.90
29551;DHT22;16488;52.396;10.696;2022-09-09T15:11:19;20.70;99.90
29551;DHT22;16488;52.396;10.696;2022-09-09T15:13:45;20.50;99.90
29551;DHT22;16488;52.396;10.696;2022-09-09T15:16:17;20.40;99.90
29551;DHT22;16488;52.396;10.696;2022-09-09T15:18:44;20.30;99.90
29551;DHT22;16488;52.396;10.696;2022-09-09T15:21:12;20.20;99.90
29551;DHT22;16488;52.396;10.696;2022-09-09T15:23:38;20.10;99.90
29551;DHT22;16488;52.396;10.696;2022-09-09T15:26:04;20.10;99.90
29551;DHT22;16488;52.396;10.696;2022-09-09T15:28:31;20.00;99.90
29551;DHT22;16488;52.396;10.696;2022-09-09T15:30:57;19.90;99.90
29551;DHT22;16488;52.396;10.696;2022-09-09T15:33:23;19.90;99.90
29551;DHT22;16488;52.396;10.696;2022-09-09T15:35:49;19.80;99.90
29551;DHT22;16488;52.396;10.696;2022-09-09T15:38:15;19.70;99.90
29551;DHT22;16488;52.396;10.696;2022-09-09T15:40:42;19.70;99.90
29551;DHT22;16488;52.396;10.696;2022-09-09T15:43:08;19.60;99.90
29551;DHT22;16488;52.396;10.696;2022-09-09T15:45:35;19.70;99.90
29551;DHT22;16488;52.396;10.696;2022-09-09T15:48:01;19.60;99.90
29551;DHT22;16488;52.396;10.696;2022-09-09T15:50:27;19.60;99.90
29551;DHT22;16488;52.396;10.696;2022-09-09T15:52:52;19.60;99.90
29551;DHT22;16488;52.396;10.696;2022-09-09T15:55:19;19.60;99.90
29551;DHT22;16488;52.396;10.696;2022-09-09T15:57:45;19.70;99.90
29551;DHT22;16488;52.396;10.696;2022-09-09T16:00:12;19.70;99.90
29551;DHT22;16488;52.396;10.696;2022-09-09T16:02:38;19.80;99.90
29551;DHT22;16488;52.396;10.696;2022-09-09T16:05:04;19.80;99.90
29551;DHT22;16488;52.396;10.696;2022-09-09T16:07:30;19.80;99.90
29551;DHT22;16488;52.396;10.696;2022-09-09T16:09:56;19.80;99.90
29551;DHT22;16488;52.396;10.696;2022-09-09T16:12:21;19.70;99.90
29551;DHT22;16488;52.396;10.696;2022-09-09T16:14:47;19.70;99.90
29551;DHT22;16488;52.396;10.696;2022-09-09T16:17:12;19.70;99.90
29551;DHT22;16488;52.396;10.696;2022-09-09T16:19:39;19.70;99.90
29551;DHT22;16488;52.396;10.696;2022-09-09T16:22:05;19.80;99.90
29551;DHT22;16488;52.396;10.696;2022-09-09T16:24:31;19.80;99.90
29551;DHT22;16488;52.396;10.696;2022-09-09T16:26:57;19.80;99.90
29551;DHT22;16488;52.396;10.696;2022-09-09T16:29:23;19.90;99.90
29551;DHT22;16488;52.396;10.696;2022-09-09T16:31:52;19.90;99.90
29551;DHT22;16488;52.396;10.696;2022-09-09T16:34:18;20.00;99.90
29551;DHT22;16488;52.396;10.696;2022-09-09T16:36:45;20.10;99.90
29551;DHT22;16488;52.396;10.696;2022-09-09T16:39:12;20.20;99.90
29551;DHT22;16488;52.396;10.696;2022-09-09T16:41:39;20.30;99.90
29551;DHT22;16488;52.396;10.696;2022-09-09T16:44:07;20.30;99.90
29551;DHT22;16488;52.396;10.696;2022-09-09T16:46:36;20.30;99.90
29551;DHT22;16488;52.396;10.696;2022-09-09T16:49:04;20.30;99.90
29551;DHT22;16488;52.396;10.696;2022-09-09T16:51:44;20.30;99.90
29551;DHT22;16488;52.396;10.696;2022-09-09T16:54:11;20.30;99.90
29551;DHT22;16488;52.396;10.696;2022-09-09T16:56:39;20.30;99.90
29551;DHT22;16488;52.396;10.696;2022-09-09T16:59:13;20.30;99.90
29551;DHT22;16488;52.396;10.696;2022-09-09T17:01:40;20.30;99.90
29551;DHT22;16488;52.396;10.696;2022-09-09T17:04:09;20.20;99.90
29551;DHT22;16488;52.396;10.696;2022-09-09T17:06:36;20.20;99.90
29551;DHT22;16488;52.396;10.696;2022-09-09T17:09:06;20.20;99.90
29551;DHT22;16488;52.396;10.696;2022-09-09T17:11:32;20.10;99.90
29551;DHT22;16488;52.396;10.696;2022-09-09T17:13:58;20.10;99.90
29551;DHT22;16488;52.396;10.696;2022-09-09T17:16:27;19.90;99.90
29551;DHT22;16488;52.396;10.696;2022-09-09T17:18:54;19.70;99.90
29551;DHT22;16488;52.396;10.696;2022-09-09T17:21:22;19.60;99.90
29551;DHT22;16488;52.396;10.696;2022-09-09T17:23:49;19.60;99.90
29551;DHT22;16488;52.396;10.696;2022-09-09T17:26:17;19.50;99.90
29551;DHT22;16488;52.396;10.696;2022-09-09T17:28:43;19.40;99.90